KMGC/MGC METAR and TAF weather

Enter ICAO airport designator
Station Type Date Time Source
KMGC METAR 2019/04/22 20:15 UTC NOAA

KMGC 222015Z AUTO 17013G21KT 10SM CLR 25/06 A2997 RMK AO2


Station Type Date Time Source
KMGC Decoded METAR 2019/04/22 20:15 UTC NOAA

Station name not available
Apr 22, 2019 - 04:15 PM EDT / 2019.04.22 2015 UTC
Wind: from the S (170 degrees) at 15 MPH (13 KT) gusting to 24 MPH (21 KT):0
Visibility: 10 mile(s):0
Sky conditions: clear
Temperature: 77 F (25 C)
Dew Point: 42 F (6 C)
Relative Humidity: 29%
Pressure (altimeter): 29.97 in. Hg (1014 hPa)
ob: KMGC 222015Z AUTO 17013G21KT 10SM CLR 25/06 A2997 RMK AO2
cycle: 20

Station Type Date Time Source
KMGC TAF UTC NOAA

Error!

Example: see airport list